CheckWX is a tool to help pilots better visualize weather data.  It is not intended as a substitute for an official pre-flight weather briefing.

16:28:09 UTC

KIWD TAF
Gogebic-Iron County Airport
Ironwood, Michigan, USA
KIWD 161249Z 1613/1712 VRB03KT P6SM SKC FM161400 19005KT P6SM SKC FM161600 19008KT P6SM SCT200 FM162300 17010KT P6SM BKN130

Sep-16@
13:00 UTC

Sep-16 @ 13:00 UTC

Sep-16@
14:00 UTC

Sep-16 @ 14:00 UTC

KIWD 161249Z 1613/1712 VRB03KT P6SM SKC

Expired

Wind
  • Variable at 3 KTS
Cloud Levels
  • Clear skies

Sep-16@
14:00 UTC

Sep-16 @ 14:00 UTC

Sep-16@
16:00 UTC

Sep-16 @ 16:00 UTC

FM161400 19005KT P6SM SKC

Expired

Wind
  • 190° at 5 KTS
Cloud Levels
  • Clear skies

Sep-16@
16:00 UTC

Sep-16 @ 16:00 UTC

Sep-16@
23:00 UTC

Sep-16 @ 23:00 UTC

FM161600 19008KT P6SM SCT200

From

From Standard forecast or significant change

Wind
  • 190° at 8 KTS
Cloud Levels
  • Scattered at 20,000' AGL

Sep-16@
23:00 UTC

Sep-16 @ 23:00 UTC

Sep-17@
12:00 UTC

Sep-17 @ 12:00 UTC

FM162300 17010KT P6SM BKN130

From

From Standard forecast or significant change

Wind
  • 170° at 10 KTS
Cloud Levels
  • Broken at 13,000' AGL